Time;durP1;ratioP1;P1;durP2;ratioP2;P2;SDS_P1;SDS_P2;PMS_P1;PMS_P2;Temp;Humidity;BMP_temperature;BMP_pressure;BME280_temperature;BME280_humidity;BME280_pressure;Samples;Min_cycle;Max_cycle;Signal;HPM_P1;HPM_P2
2023/10/10 00:02:21;;;;;;;3.00;0.90;;;;;;;;;;4952960;28;20114;-70
2023/10/10 00:04:48;;;;;;;3.40;1.23;;;;;;;;;;4952592;28;20624;-70
2023/10/10 00:07:15;;;;;;;5.60;0.95;;;;;;;;;;4952292;28;20059;-68
2023/10/10 00:09:45;;;;;;;3.88;1.13;;;;;;;;;;4952129;28;20135;-67
2023/10/10 00:12:19;;;;;;;4.55;1.10;;;;;;;;;;4952144;28;20047;-66
2023/10/10 00:14:50;;;;;;;5.03;1.30;;;;;;;;;;4948639;28;20456;-67
2023/10/10 00:17:17;;;;;;;3.38;0.90;;;;;;;;;;4952926;28;20365;-65
2023/10/10 00:19:53;;;;;;;4.35;1.35;;;;;;;;;;4953312;28;20464;-67
2023/10/10 00:22:33;;;;;;;6.32;1.13;;;;;;;;;;4954479;28;20047;-65
2023/10/10 00:25:04;;;;;;;5.93;1.20;;;;;;;;;;4951553;28;20374;-66
2023/10/10 00:27:32;;;;;;;5.97;1.25;;;;;;;;;;4953186;28;20584;-66
2023/10/10 00:29:59;;;;;;;5.15;1.20;;;;;;;;;;4967544;28;20510;-67
2023/10/10 00:32:28;;;;;;;6.30;1.40;;;;;;;;;;4963334;28;20419;-67
2023/10/10 00:34:55;;;;;;;5.35;1.80;;;;;;;;;;4953470;28;20035;-66
2023/10/10 00:37:34;;;;;;;5.22;1.50;;;;;;;;;;4951466;28;20042;-68
2023/10/10 00:40:09;;;;;;;5.03;1.40;;;;;;;;;;4953520;28;20054;-67
2023/10/10 00:42:42;;;;;;;7.07;1.95;;;;;;;;;;4953168;28;20054;-67
2023/10/10 00:45:12;;;;;;;6.60;2.15;;;;;;;;;;4954189;28;20039;-68
2023/10/10 00:47:42;;;;;;;11.75;3.08;;;;;;;;;;4953209;28;20270;-63
2023/10/10 00:50:16;;;;;;;9.43;3.15;;;;;;;;;;4954159;28;20047;-67
2023/10/10 00:52:51;;;;;;;8.32;2.92;;;;;;;;;;4952916;28;20050;-68
2023/10/10 00:55:24;;;;;;;6.47;1.73;;;;;;;;;;4954096;28;20066;-69
2023/10/10 00:57:55;;;;;;;6.30;1.73;;;;;;;;;;4960666;28;20207;-68
2023/10/10 01:00:25;;;;;;;4.38;1.20;;;;;;;;;;4954630;28;21477;-67
2023/10/10 01:03:20;;;;;;;18.48;2.47;;;;;;;;;;4966434;28;20031;-66
2023/10/10 01:05:43;;;;;;;15.75;2.33;;;;;;;;;;4954296;28;20082;-68
2023/10/10 01:08:10;;;;;;;6.88;1.92;;;;;;;;;;4951326;28;20147;-66
2023/10/10 01:10:43;;;;;;;5.75;1.88;;;;;;;;;;4953578;28;20125;-68
2023/10/10 01:13:10;;;;;;;8.70;1.92;;;;;;;;;;4953846;28;20043;-66
2023/10/10 01:15:48;;;;;;;8.57;1.95;;;;;;;;;;4953069;28;20053;-66
2023/10/10 01:18:15;;;;;;;5.15;1.73;;;;;;;;;;4952490;28;20157;-65
2023/10/10 01:20:49;;;;;;;9.50;1.90;;;;;;;;;;4951287;28;20050;-66
2023/10/10 01:23:19;;;;;;;5.75;2.00;;;;;;;;;;4953163;28;20054;-59
2023/10/10 01:25:47;;;;;;;9.57;4.20;;;;;;;;;;4952226;28;20055;-62
2023/10/10 01:33:49;;;;;;;8.13;2.88;;;;;;;;;;4963334;28;20406;-68
2023/10/10 01:36:19;;;;;;;6.38;2.45;;;;;;;;;;4955536;28;20500;-68
2023/10/10 01:39:02;;;;;;;10.93;3.00;;;;;;;;;;4951574;28;20059;-67
2023/10/10 01:41:38;;;;;;;10.25;3.72;;;;;;;;;;4951890;28;20061;-70
2023/10/10 01:44:23;;;;;;;13.30;3.50;;;;;;;;;;4953554;28;20047;-69
2023/10/10 01:46:53;;;;;;;6.65;3.33;;;;;;;;;;4950995;28;20055;-66
2023/10/10 01:49:20;;;;;;;6.30;2.20;;;;;;;;;;4951559;28;20074;-68
2023/10/10 01:51:54;;;;;;;6.63;2.17;;;;;;;;;;4942302;28;20053;-68
2023/10/10 01:54:22;;;;;;;12.18;2.28;;;;;;;;;;4934972;28;20073;-69
2023/10/10 01:56:51;;;;;;;8.77;2.00;;;;;;;;;;4951266;28;20431;-68
2023/10/10 01:59:25;;;;;;;6.82;1.80;;;;;;;;;;4950998;28;20101;-68
2023/10/10 02:01:57;;;;;;;10.20;2.03;;;;;;;;;;4969565;28;20100;-68
2023/10/10 02:04:28;;;;;;;5.53;2.07;;;;;;;;;;4959727;28;20050;-60
2023/10/10 02:07:04;;;;;;;8.55;2.13;;;;;;;;;;4959062;28;20430;-62
2023/10/10 02:09:34;;;;;;;10.75;2.25;;;;;;;;;;4950405;28;20051;-60
2023/10/10 02:12:16;;;;;;;7.20;2.60;;;;;;;;;;4957191;28;20069;-63
2023/10/10 02:14:43;;;;;;;5.30;2.28;;;;;;;;;;4971664;28;20035;-60
2023/10/10 02:17:21;;;;;;;5.70;2.17;;;;;;;;;;4965799;28;20038;-62
2023/10/10 02:20:17;;;;;;;6.75;2.00;;;;;;;;;;4951689;28;20045;-62
2023/10/10 02:22:47;;;;;;;10.55;2.30;;;;;;;;;;4953910;28;20230;-63
2023/10/10 02:28:05;;;;;;;6.65;2.17;;;;;;;;;;4953638;28;20565;-61
2023/10/10 02:30:35;;;;;;;13.80;2.38;;;;;;;;;;4953829;28;20038;-61
2023/10/10 02:33:22;;;;;;;6.10;2.20;;;;;;;;;;4952853;28;20058;-61
2023/10/10 02:35:59;;;;;;;5.80;2.30;;;;;;;;;;4967901;28;20168;-62
2023/10/10 02:38:33;;;;;;;5.32;2.15;;;;;;;;;;4967560;28;20065;-61
2023/10/10 02:46:27;;;;;;;9.63;3.00;;;;;;;;;;4949121;28;20427;-62
2023/10/10 02:48:56;;;;;;;11.15;2.60;;;;;;;;;;4949076;28;20417;-59
2023/10/10 02:51:22;;;;;;;9.27;2.90;;;;;;;;;;4965865;28;20594;-62
2023/10/10 02:53:50;;;;;;;10.27;2.70;;;;;;;;;;4951989;28;20035;-62
2023/10/10 02:56:20;;;;;;;8.73;2.47;;;;;;;;;;4952422;28;20053;-62
2023/10/10 02:58:53;;;;;;;6.70;2.53;;;;;;;;;;4951524;28;20411;-60
2023/10/10 03:04:08;;;;;;;8.50;2.40;;;;;;;;;;4952128;28;20074;-62
2023/10/10 03:06:35;;;;;;;10.90;2.55;;;;;;;;;;4966478;28;20310;-59
2023/10/10 03:09:38;;;;;;;8.65;2.40;;;;;;;;;;4953114;28;20050;-61
2023/10/10 03:12:04;;;;;;;11.50;4.05;;;;;;;;;;4950987;28;20047;-61
2023/10/10 03:14:34;;;;;;;11.32;2.20;;;;;;;;;;4961853;28;20500;-63
2023/10/10 03:17:31;;;;;;;5.95;1.90;;;;;;;;;;4967513;28;20129;-64
2023/10/10 03:20:10;;;;;;;9.98;2.28;;;;;;;;;;4958521;28;20491;-61
2023/10/10 03:25:28;;;;;;;10.05;2.50;;;;;;;;;;4936173;28;20051;-59
2023/10/10 03:27:55;;;;;;;13.75;2.47;;;;;;;;;;4951501;28;20043;-62
2023/10/10 03:33:16;;;;;;;6.50;2.33;;;;;;;;;;4947554;28;20709;-60
2023/10/10 03:35:59;;;;;;;7.20;2.45;;;;;;;;;;4980045;28;20047;-60
2023/10/10 05:25:25;;;;;;;4.55;2.00;;;;;;;;;;4946824;28;20479;-64
2023/10/10 05:27:58;;;;;;;7.38;1.98;;;;;;;;;;4955832;28;20098;-60
2023/10/10 05:30:25;;;;;;;9.75;1.73;;;;;;;;;;4954086;28;20061;-63
2023/10/10 05:33:10;;;;;;;5.75;1.77;;;;;;;;;;4948977;28;20066;-61
2023/10/10 05:35:38;;;;;;;3.67;1.33;;;;;;;;;;4963124;28;20076;-63
2023/10/10 05:38:07;;;;;;;5.25;1.90;;;;;;;;;;4957374;28;20081;-63
2023/10/10 05:40:34;;;;;;;6.72;2.00;;;;;;;;;;4955209;28;20587;-61
2023/10/10 05:43:09;;;;;;;7.82;1.80;;;;;;;;;;4953695;28;20161;-62
2023/10/10 05:45:38;;;;;;;6.32;2.22;;;;;;;;;;4959972;28;20070;-61
2023/10/10 05:48:05;;;;;;;8.00;2.10;;;;;;;;;;4964725;28;20057;-60
2023/10/10 05:50:53;;;;;;;6.45;2.30;;;;;;;;;;5005014;28;20046;-63
2023/10/10 05:53:20;;;;;;;5.47;1.77;;;;;;;;;;4996341;28;20133;-61
2023/10/10 05:55:53;;;;;;;5.80;2.20;;;;;;;;;;4991166;28;20042;-61
2023/10/10 05:58:23;;;;;;;6.07;2.00;;;;;;;;;;4982108;28;20048;-59
2023/10/10 06:00:49;;;;;;;6.18;1.92;;;;;;;;;;4990614;28;20508;-60
2023/10/10 06:03:19;;;;;;;4.70;2.17;;;;;;;;;;4981286;28;20034;-61
2023/10/10 06:05:46;;;;;;;6.00;2.22;;;;;;;;;;4986822;28;20056;-62
2023/10/10 06:08:15;;;;;;;7.97;2.08;;;;;;;;;;4989542;28;20381;-61
2023/10/10 06:10:43;;;;;;;5.65;2.05;;;;;;;;;;4987463;28;20630;-63
2023/10/10 06:13:11;;;;;;;4.82;1.90;;;;;;;;;;4989546;28;20049;-60
2023/10/10 06:15:37;;;;;;;7.55;1.60;;;;;;;;;;4988586;28;20534;-62
2023/10/10 06:18:13;;;;;;;7.40;2.30;;;;;;;;;;4988418;28;20616;-62
2023/10/10 06:20:41;;;;;;;5.25;1.80;;;;;;;;;;4986925;28;20662;-59
2023/10/10 06:23:18;;;;;;;10.45;1.83;;;;;;;;;;4988964;28;20177;-59
2023/10/10 06:25:45;;;;;;;7.10;2.05;;;;;;;;;;4987864;28;20673;-59
2023/10/10 06:28:29;;;;;;;5.28;1.83;;;;;;;;;;4973964;28;20038;-60
2023/10/10 06:30:59;;;;;;;7.18;1.90;;;;;;;;;;4961049;28;20504;-60
2023/10/10 06:33:29;;;;;;;5.22;2.00;;;;;;;;;;4953392;28;20034;-61
2023/10/10 06:41:47;;;;;;;5.40;1.90;;;;;;;;;;4962769;28;20050;-62
2023/10/10 06:44:14;;;;;;;5.05;1.55;;;;;;;;;;4937280;28;20046;-62
2023/10/10 06:46:41;;;;;;;5.32;1.70;;;;;;;;;;4964089;28;20061;-65
2023/10/10 06:49:11;;;;;;;9.57;2.35;;;;;;;;;;4954939;28;20046;-62
2023/10/10 06:51:55;;;;;;;4.57;1.60;;;;;;;;;;4950724;28;20553;-61
2023/10/10 06:54:34;;;;;;;8.30;2.05;;;;;;;;;;4936935;28;20032;-64
2023/10/10 06:59:28;;;;;;;4.20;1.52;;;;;;;;;;4947666;28;20046;-60
2023/10/10 07:02:20;;;;;;;7.75;1.95;;;;;;;;;;4950026;28;20110;-61
2023/10/10 07:04:42;;;;;;;5.55;1.88;;;;;;;;;;4960114;28;20084;-62
2023/10/10 07:07:10;;;;;;;4.05;1.52;;;;;;;;;;4964604;28;20084;-62
2023/10/10 07:09:37;;;;;;;5.43;1.70;;;;;;;;;;4960953;28;20039;-61
2023/10/10 07:12:10;;;;;;;6.57;2.00;;;;;;;;;;4970259;28;20053;-61
2023/10/10 07:14:45;;;;;;;4.53;1.80;;;;;;;;;;4966557;28;20191;-58
2023/10/10 07:17:12;;;;;;;5.25;1.90;;;;;;;;;;4963525;28;20621;-62
2023/10/10 07:22:27;;;;;;;7.32;1.88;;;;;;;;;;4962663;28;20039;-60
2023/10/10 07:25:07;;;;;;;4.22;1.70;;;;;;;;;;4957699;28;20034;-60
2023/10/10 07:27:39;;;;;;;6.45;1.73;;;;;;;;;;4952540;28;20050;-58
2023/10/10 07:30:18;;;;;;;5.47;2.05;;;;;;;;;;4954221;28;20073;-59
2023/10/10 07:33:04;;;;;;;4.32;1.60;;;;;;;;;;4941346;28;20035;-61
2023/10/10 07:35:36;;;;;;;4.43;1.80;;;;;;;;;;4932421;28;20086;-58
2023/10/10 07:38:02;;;;;;;5.68;1.73;;;;;;;;;;4953383;28;20035;-61
2023/10/10 07:40:37;;;;;;;4.43;1.65;;;;;;;;;;4942565;28;20111;-59
2023/10/10 07:43:04;;;;;;;5.68;1.83;;;;;;;;;;4947525;28;20037;-58
2023/10/10 07:45:33;;;;;;;3.50;1.55;;;;;;;;;;4950437;28;20527;-62
2023/10/10 07:53:34;;;;;;;4.10;1.50;;;;;;;;;;4934343;28;20078;-60
2023/10/10 07:56:03;;;;;;;7.50;2.20;;;;;;;;;;4933923;28;20051;-61
2023/10/10 07:58:49;;;;;;;5.32;2.08;;;;;;;;;;4958673;28;20050;-61
2023/10/10 08:01:16;;;;;;;6.82;2.05;;;;;;;;;;4938514;28;20189;-60
2023/10/10 08:03:44;;;;;;;6.85;1.75;;;;;;;;;;4958817;28;20353;-58
2023/10/10 08:06:11;;;;;;;7.13;1.70;;;;;;;;;;4975244;28;20057;-60
2023/10/10 08:08:40;;;;;;;4.38;1.83;;;;;;;;;;4955852;28;20436;-59
2023/10/10 08:11:12;;;;;;;5.32;1.98;;;;;;;;;;4953465;28;20524;-59
2023/10/10 08:13:48;;;;;;;5.37;2.00;;;;;;;;;;4954458;28;20181;-58
2023/10/10 08:16:20;;;;;;;5.43;2.15;;;;;;;;;;4955554;28;20069;-59
2023/10/10 08:21:14;;;;;;;7.38;2.10;;;;;;;;;;4968637;28;20038;-62
2023/10/10 08:23:48;;;;;;;4.55;2.13;;;;;;;;;;4956206;28;20039;-59
2023/10/10 08:26:18;;;;;;;4.85;2.03;;;;;;;;;;4965876;28;20644;-61
2023/10/10 08:28:48;;;;;;;5.57;2.40;;;;;;;;;;4954046;28;20055;-58
2023/10/10 08:31:16;;;;;;;4.65;1.80;;;;;;;;;;4958657;28;20463;-58
2023/10/10 08:33:49;;;;;;;7.55;1.98;;;;;;;;;;4953213;28;20047;-59
2023/10/10 08:36:23;;;;;;;6.40;1.92;;;;;;;;;;4955503;28;20146;-58
2023/10/10 08:38:57;;;;;;;8.27;1.80;;;;;;;;;;4954079;28;20479;-63
2023/10/10 08:41:26;;;;;;;5.15;2.00;;;;;;;;;;4955195;28;20059;-61
2023/10/10 08:43:57;;;;;;;5.85;1.90;;;;;;;;;;4954589;28;20504;-60
2023/10/10 08:46:31;;;;;;;3.45;1.60;;;;;;;;;;4962049;28;20176;-58
2023/10/10 08:49:03;;;;;;;6.03;1.92;;;;;;;;;;4954967;28;20392;-58
2023/10/10 08:51:34;;;;;;;5.28;2.00;;;;;;;;;;4961554;28;20042;-58
2023/10/10 08:54:10;;;;;;;4.45;1.67;;;;;;;;;;4972687;28;20039;-57
2023/10/10 08:56:37;;;;;;;7.10;1.83;;;;;;;;;;4955585;28;20428;-58
2023/10/10 08:59:05;;;;;;;5.93;2.17;;;;;;;;;;4959137;28;20037;-58
2023/10/10 09:01:39;;;;;;;8.48;2.13;;;;;;;;;;4948917;28;20035;-58
2023/10/10 09:04:12;;;;;;;5.20;1.75;;;;;;;;;;4955258;28;20042;-61
2023/10/10 09:06:58;;;;;;;7.00;1.80;;;;;;;;;;4954220;28;20078;-58
2023/10/10 09:12:04;;;;;;;5.72;1.52;;;;;;;;;;4955382;28;20043;-61
2023/10/10 09:14:41;;;;;;;4.80;1.95;;;;;;;;;;4953260;28;20054;-59
2023/10/10 09:17:14;;;;;;;6.30;1.80;;;;;;;;;;4955177;28;20636;-61
2023/10/10 09:19:40;;;;;;;;;;;;;;;;;;4954052;28;20128;-59
2023/10/10 09:22:12;;;;;;;6.25;1.98;;;;;;;;;;4969945;28;19922;-60
2023/10/10 09:24:41;;;;;;;10.25;2.30;;;;;;;;;;4953271;28;20046;-61
2023/10/10 09:27:28;;;;;;;7.47;2.13;;;;;;;;;;4962223;28;20046;-59
2023/10/10 09:30:00;;;;;;;6.63;2.13;;;;;;;;;;4963827;28;20046;-59
2023/10/10 09:32:35;;;;;;;8.00;1.90;;;;;;;;;;4957404;28;20550;-59
2023/10/10 09:35:05;;;;;;;5.55;1.90;;;;;;;;;;4954056;28;20210;-58
2023/10/10 09:37:35;;;;;;;5.45;2.00;;;;;;;;;;4951481;28;20035;-59
2023/10/10 09:40:15;;;;;;;4.40;1.75;;;;;;;;;;4952724;28;20055;-59
2023/10/10 09:43:03;;;;;;;7.45;1.90;;;;;;;;;;4967953;28;20042;-60
2023/10/10 09:51:30;;;;;;;4.40;1.80;;;;;;;;;;4953385;28;20049;-60
2023/10/10 09:54:15;;;;;;;4.43;1.90;;;;;;;;;;4951307;28;20049;-59
2023/10/10 09:56:53;;;;;;;3.85;1.58;;;;;;;;;;4951847;28;20093;-62
2023/10/10 09:59:20;;;;;;;3.80;1.52;;;;;;;;;;4952491;28;20039;-58
2023/10/10 10:01:48;;;;;;;4.78;1.67;;;;;;;;;;4967261;28;20039;-59
2023/10/10 10:04:18;;;;;;;4.05;1.63;;;;;;;;;;4953714;28;20039;-60
2023/10/10 10:06:58;;;;;;;5.47;1.85;;;;;;;;;;4983546;28;20134;-61
2023/10/10 10:09:36;;;;;;;3.85;1.58;;;;;;;;;;4961712;28;20053;-59
2023/10/10 10:12:30;;;;;;;5.18;1.95;;;;;;;;;;4959498;28;20051;-60
2023/10/10 10:15:08;;;;;;;4.60;1.70;;;;;;;;;;4973497;28;20578;-59
2023/10/10 10:17:54;;;;;;;4.65;1.77;;;;;;;;;;4968468;28;20038;-61
2023/10/10 10:20:33;;;;;;;8.85;2.15;;;;;;;;;;4973046;28;20650;-56
2023/10/10 10:23:00;;;;;;;4.20;1.60;;;;;;;;;;4972814;28;20066;-59
2023/10/10 10:25:32;;;;;;;4.95;1.50;;;;;;;;;;4970825;28;20129;-59
2023/10/10 10:28:11;;;;;;;4.38;1.58;;;;;;;;;;4953344;28;20043;-59
2023/10/10 10:30:51;;;;;;;4.90;1.58;;;;;;;;;;4953847;28;20059;-58
2023/10/10 10:33:24;;;;;;;4.38;1.40;;;;;;;;;;4969925;28;20537;-59
2023/10/10 10:36:40;;;;;;;4.55;1.70;;;;;;;;;;4971113;28;20559;-60
2023/10/10 10:38:39;;;;;;;6.00;1.60;;;;;;;;;;4962047;28;20047;-58
2023/10/10 10:41:16;;;;;;;4.88;1.70;;;;;;;;;;4952532;28;20067;-58
2023/10/10 10:43:49;;;;;;;4.30;1.83;;;;;;;;;;4951099;28;20049;-62
2023/10/10 10:46:27;;;;;;;9.13;1.92;;;;;;;;;;4951293;28;20054;-62
2023/10/10 10:49:05;;;;;;;6.00;1.75;;;;;;;;;;4957003;28;20733;-62
2023/10/10 10:51:41;;;;;;;5.22;1.70;;;;;;;;;;4954058;28;20562;-60
2023/10/10 10:54:09;;;;;;;4.80;2.10;;;;;;;;;;4950167;28;20551;-64
2023/10/10 10:59:12;;;;;;;6.13;1.75;;;;;;;;;;4955759;28;20043;-64
2023/10/10 11:01:46;;;;;;;3.85;1.50;;;;;;;;;;4955717;28;20053;-60
2023/10/10 11:04:25;;;;;;;6.20;1.67;;;;;;;;;;4951990;28;20426;-60
2023/10/10 11:06:52;;;;;;;7.18;2.00;;;;;;;;;;4951356;28;20050;-60
2023/10/10 11:09:28;;;;;;;5.93;1.83;;;;;;;;;;4952960;28;20057;-62
2023/10/10 11:12:02;;;;;;;8.23;1.73;;;;;;;;;;4949465;28;20522;-59
2023/10/10 11:14:45;;;;;;;5.68;1.48;;;;;;;;;;4967680;28;20474;-59
2023/10/10 11:17:18;;;;;;;5.22;1.85;;;;;;;;;;4966864;28;20507;-60
2023/10/10 11:19:53;;;;;;;4.50;1.73;;;;;;;;;;4967517;28;20088;-60
2023/10/10 11:22:38;;;;;;;4.28;1.52;;;;;;;;;;4967135;28;20082;-62
2023/10/10 11:25:11;;;;;;;7.88;2.00;;;;;;;;;;4967246;28;20574;-63
2023/10/10 11:27:44;;;;;;;4.80;1.60;;;;;;;;;;4966274;28;20515;-63
2023/10/10 11:30:12;;;;;;;5.30;1.40;;;;;;;;;;4967817;28;20221;-60
2023/10/10 11:32:46;;;;;;;4.07;1.70;;;;;;;;;;4967030;28;20043;-61
2023/10/10 11:37:48;;;;;;;11.10;2.03;;;;;;;;;;4983046;28;20122;-59
2023/10/10 11:40:30;;;;;;;5.22;1.55;;;;;;;;;;4967781;28;20726;-59
2023/10/10 11:43:03;;;;;;;4.60;1.55;;;;;;;;;;4987671;28;20152;-61
2023/10/10 11:45:30;;;;;;;3.80;1.50;;;;;;;;;;4976468;28;20057;-59
2023/10/10 11:48:05;;;;;;;7.63;1.40;;;;;;;;;;4957184;28;20722;-62
2023/10/10 11:50:45;;;;;;;5.93;1.50;;;;;;;;;;4948303;28;20046;-61
2023/10/10 11:53:27;;;;;;;4.20;1.70;;;;;;;;;;4950956;28;20611;-61
2023/10/10 11:56:07;;;;;;;4.82;1.58;;;;;;;;;;4950266;28;20069;-61
2023/10/10 11:58:36;;;;;;;5.43;1.83;;;;;;;;;;4951323;28;20039;-64
2023/10/10 12:01:06;;;;;;;5.28;1.40;;;;;;;;;;4947281;28;20042;-61
2023/10/10 12:03:43;;;;;;;3.63;1.40;;;;;;;;;;4947982;28;20523;-61
2023/10/10 12:06:26;;;;;;;3.95;1.58;;;;;;;;;;4949311;28;20452;-60
2023/10/10 12:08:53;;;;;;;;;;;;;;;;;;4948284;28;20470;-60
2023/10/10 12:11:21;;;;;;;5.47;1.50;;;;;;;;;;4949552;28;19922;-62
2023/10/10 12:13:48;;;;;;;5.43;1.60;;;;;;;;;;4966981;28;20105;-61
2023/10/10 12:16:35;;;;;;;4.00;1.33;;;;;;;;;;4967187;28;20034;-59
2023/10/10 12:19:22;;;;;;;4.55;1.48;;;;;;;;;;4961965;28;20577;-59
2023/10/10 12:21:48;;;;;;;5.90;1.50;;;;;;;;;;4964001;28;20038;-57
2023/10/10 12:24:15;;;;;;;4.03;1.70;;;;;;;;;;4963597;28;20125;-61
2023/10/10 12:26:42;;;;;;;9.02;1.80;;;;;;;;;;4961574;28;20141;-60
2023/10/10 12:29:13;;;;;;;3.80;1.52;;;;;;;;;;4962292;28;20503;-58
2023/10/10 12:31:40;;;;;;;5.70;1.60;;;;;;;;;;4962360;28;20684;-60
2023/10/10 12:34:09;;;;;;;6.78;1.70;;;;;;;;;;4950976;28;20594;-59
2023/10/10 12:36:36;;;;;;;4.55;1.92;;;;;;;;;;4925152;28;20125;-60
2023/10/10 12:39:14;;;;;;;4.50;1.67;;;;;;;;;;4943424;28;20032;-57
2023/10/10 12:41:46;;;;;;;7.93;2.00;;;;;;;;;;4942281;28;20079;-63
2023/10/10 12:44:13;;;;;;;3.38;1.45;;;;;;;;;;4942933;28;20050;-63
2023/10/10 12:46:40;;;;;;;5.78;1.83;;;;;;;;;;4923906;28;21522;-60
2023/10/10 12:49:11;;;;;;;4.65;1.67;;;;;;;;;;4927276;28;20178;-59
2023/10/10 12:51:39;;;;;;;4.38;1.75;;;;;;;;;;4925608;28;20456;-61
2023/10/10 12:54:10;;;;;;;4.60;1.50;;;;;;;;;;4944219;28;20205;-60
2023/10/10 12:56:48;;;;;;;7.15;1.48;;;;;;;;;;4958932;28;20142;-61
2023/10/10 12:59:20;;;;;;;4.43;1.60;;;;;;;;;;4967052;28;20046;-62
2023/10/10 13:01:47;;;;;;;4.88;1.50;;;;;;;;;;4970388;28;20045;-60
2023/10/10 13:04:17;;;;;;;6.03;1.60;;;;;;;;;;4970072;28;20046;-60
2023/10/10 13:06:51;;;;;;;4.90;1.55;;;;;;;;;;4953830;28;20597;-61
2023/10/10 13:09:19;;;;;;;7.53;1.55;;;;;;;;;;4953998;28;20046;-61
2023/10/10 13:11:45;;;;;;;7.88;1.42;;;;;;;;;;4962909;28;20038;-58
2023/10/10 13:14:18;;;;;;;4.47;1.60;;;;;;;;;;4984510;28;20046;-62
2023/10/10 13:19:13;;;;;;;4.82;1.60;;;;;;;;;;4964774;28;20684;-62
2023/10/10 13:21:41;;;;;;;5.15;1.65;;;;;;;;;;4953166;28;20050;-62
2023/10/10 13:24:15;;;;;;;6.00;1.75;;;;;;;;;;4953383;28;20038;-62
2023/10/10 13:26:42;;;;;;;8.68;1.63;;;;;;;;;;4952735;28;20767;-60
2023/10/10 13:29:09;;;;;;;4.50;1.38;;;;;;;;;;4954631;28;20420;-62
2023/10/10 13:31:40;;;;;;;5.18;1.50;;;;;;;;;;4953788;28;20369;-62
2023/10/10 13:34:07;;;;;;;6.15;1.80;;;;;;;;;;4954266;28;20051;-59
2023/10/10 13:36:33;;;;;;;6.18;1.85;;;;;;;;;;4952291;28;20050;-63
2023/10/10 13:39:05;;;;;;;7.85;1.70;;;;;;;;;;4954722;28;20047;-61
2023/10/10 13:41:35;;;;;;;9.73;2.08;;;;;;;;;;4953095;28;20053;-62
2023/10/10 13:44:03;;;;;;;6.20;1.80;;;;;;;;;;4966942;28;20046;-63
2023/10/10 13:46:34;;;;;;;8.48;2.15;;;;;;;;;;4950451;28;20062;-60
2023/10/10 13:49:04;;;;;;;9.70;2.20;;;;;;;;;;4953467;28;20569;-63
2023/10/10 13:51:39;;;;;;;7.43;1.80;;;;;;;;;;4944223;28;20046;-64
2023/10/10 13:54:06;;;;;;;8.10;1.85;;;;;;;;;;4955940;28;20403;-64
2023/10/10 13:56:33;;;;;;;7.22;1.80;;;;;;;;;;4950776;28;20065;-60
2023/10/10 13:59:21;;;;;;;5.75;2.10;;;;;;;;;;4930580;28;20070;-66
2023/10/10 14:01:48;;;;;;;20.77;7.78;;;;;;;;;;4932987;28;20039;-62
2023/10/10 14:04:45;;;;;;;13.27;3.10;;;;;;;;;;4939761;28;20035;-61
2023/10/10 14:07:05;;;;;;;8.00;1.77;;;;;;;;;;4937788;28;20467;-62
2023/10/10 14:09:33;;;;;;;7.28;2.17;;;;;;;;;;4937288;28;20047;-60
2023/10/10 14:12:03;;;;;;;9.27;2.00;;;;;;;;;;4940255;28;20038;-59
2023/10/10 14:14:30;;;;;;;4.40;1.70;;;;;;;;;;4939452;28;20430;-62
2023/10/10 14:16:57;;;;;;;6.78;2.10;;;;;;;;;;4938432;28;20043;-60
2023/10/10 14:19:24;;;;;;;5.25;1.92;;;;;;;;;;4939024;28;20451;-61
2023/10/10 14:21:54;;;;;;;9.27;1.80;;;;;;;;;;4940434;28;20046;-60
2023/10/10 14:24:21;;;;;;;7.95;1.98;;;;;;;;;;4939209;28;20050;-61
2023/10/10 14:26:48;;;;;;;5.15;1.83;;;;;;;;;;4939436;28;20146;-62
2023/10/10 14:29:15;;;;;;;9.40;1.88;;;;;;;;;;4938349;28;20170;-62
2023/10/10 14:31:43;;;;;;;7.32;1.52;;;;;;;;;;4939960;28;20045;-65
2023/10/10 14:34:38;;;;;;;17.20;2.20;;;;;;;;;;4940297;28;20062;-60
2023/10/10 14:37:00;;;;;;;9.43;1.98;;;;;;;;;;4954983;28;20043;-60
2023/10/10 14:39:31;;;;;;;8.27;1.95;;;;;;;;;;4968242;28;20047;-64
2023/10/10 14:42:01;;;;;;;6.35;1.80;;;;;;;;;;4971259;28;20125;-61
2023/10/10 14:44:28;;;;;;;10.55;2.05;;;;;;;;;;4967396;28;20128;-62
2023/10/10 14:46:57;;;;;;;7.95;1.70;;;;;;;;;;4986449;28;20561;-61
2023/10/10 14:49:30;;;;;;;5.90;1.67;;;;;;;;;;4962472;28;20476;-63
2023/10/10 14:52:03;;;;;;;10.77;2.13;;;;;;;;;;4965084;28;20069;-62
2023/10/10 14:54:30;;;;;;;13.50;2.17;;;;;;;;;;4945726;28;20051;-60
2023/10/10 14:56:57;;;;;;;15.10;2.28;;;;;;;;;;4950140;28;20066;-63
2023/10/10 14:59:25;;;;;;;5.07;1.60;;;;;;;;;;4949977;28;20066;-64
2023/10/10 15:01:53;;;;;;;11.30;2.13;;;;;;;;;;4951856;28;20113;-65
2023/10/10 15:04:22;;;;;;;9.30;2.10;;;;;;;;;;4946609;28;20046;-59
2023/10/10 15:06:54;;;;;;;11.60;2.65;;;;;;;;;;4969793;28;20050;-59
2023/10/10 15:09:20;;;;;;;6.40;1.77;;;;;;;;;;4970556;28;20650;-65
2023/10/10 15:11:47;;;;;;;5.70;2.05;;;;;;;;;;4951348;28;20137;-62
2023/10/10 15:14:18;;;;;;;7.80;1.92;;;;;;;;;;4950886;28;20286;-59
2023/10/10 15:16:49;;;;;;;9.73;2.40;;;;;;;;;;4968490;28;20407;-61
2023/10/10 15:19:15;;;;;;;7.22;2.00;;;;;;;;;;4950975;28;20059;-61
2023/10/10 15:21:47;;;;;;;13.23;2.10;;;;;;;;;;4950924;28;20096;-62
2023/10/10 15:24:14;;;;;;;8.95;2.03;;;;;;;;;;4951643;28;20396;-60
2023/10/10 15:26:45;;;;;;;10.63;2.13;;;;;;;;;;4952792;28;20057;-60
2023/10/10 15:29:14;;;;;;;7.35;1.95;;;;;;;;;;4958674;28;20503;-62
2023/10/10 15:31:41;;;;;;;6.10;2.08;;;;;;;;;;4964520;28;20097;-63
2023/10/10 15:34:07;;;;;;;7.32;1.75;;;;;;;;;;4954466;28;20586;-61
2023/10/10 15:36:34;;;;;;;5.82;1.65;;;;;;;;;;4954040;28;20468;-62
2023/10/10 15:39:04;;;;;;;8.88;2.00;;;;;;;;;;4959175;28;20035;-61
2023/10/10 15:41:31;;;;;;;6.10;1.90;;;;;;;;;;4952878;28;20682;-64
2023/10/10 15:44:04;;;;;;;7.03;1.63;;;;;;;;;;4965699;28;20046;-63
2023/10/10 15:46:32;;;;;;;6.47;1.60;;;;;;;;;;4950525;28;20478;-60
2023/10/10 15:49:00;;;;;;;10.60;1.50;;;;;;;;;;4948660;28;20043;-63
2023/10/10 15:51:27;;;;;;;4.05;1.40;;;;;;;;;;4953160;28;20061;-61
2023/10/10 15:54:02;;;;;;;7.03;2.03;;;;;;;;;;4948094;28;20102;-62
2023/10/10 15:56:30;;;;;;;4.90;1.23;;;;;;;;;;4949986;28;21368;-65
2023/10/10 15:58:57;;;;;;;6.78;1.70;;;;;;;;;;4951939;28;20057;-62
2023/10/10 16:01:27;;;;;;;8.55;1.90;;;;;;;;;;4950506;28;20043;-66
2023/10/10 16:04:19;;;;;;;6.80;1.75;;;;;;;;;;4949739;28;20047;-63
2023/10/10 16:06:50;;;;;;;3.35;1.20;;;;;;;;;;4946915;28;20066;-60
2023/10/10 16:09:21;;;;;;;7.15;1.60;;;;;;;;;;4952889;28;20050;-60
2023/10/10 16:11:54;;;;;;;7.45;1.40;;;;;;;;;;4943693;28;20051;-61
2023/10/10 16:14:21;;;;;;;;;;;;;;;;;;4954714;28;21374;-62
2023/10/10 16:16:48;;;;;;;4.50;1.30;;;;;;;;;;4954968;28;19918;-64
2023/10/10 16:19:20;;;;;;;9.73;1.55;;;;;;;;;;4954365;28;20043;-60
2023/10/10 16:21:51;;;;;;;3.83;1.40;;;;;;;;;;4954869;28;20043;-61
2023/10/10 16:24:18;;;;;;;4.72;1.33;;;;;;;;;;4954624;28;20051;-64
2023/10/10 16:26:45;;;;;;;13.13;2.17;;;;;;;;;;4958194;28;20157;-66
2023/10/10 16:29:12;;;;;;;6.00;1.58;;;;;;;;;;4956604;28;20158;-60
2023/10/10 16:31:43;;;;;;;6.15;1.60;;;;;;;;;;4955849;28;20054;-63
2023/10/10 16:34:11;;;;;;;3.95;1.23;;;;;;;;;;4956436;28;20043;-61
2023/10/10 16:36:37;;;;;;;9.98;1.70;;;;;;;;;;4954843;28;20137;-63
2023/10/10 16:39:10;;;;;;;5.25;1.42;;;;;;;;;;4955287;28;20079;-61
2023/10/10 16:41:37;;;;;;;6.75;1.10;;;;;;;;;;4955223;28;20511;-63
2023/10/10 16:44:04;;;;;;;7.55;1.33;;;;;;;;;;4957724;28;20046;-62
2023/10/10 16:46:31;;;;;;;4.60;1.38;;;;;;;;;;4953958;28;20050;-60
2023/10/10 16:48:58;;;;;;;4.43;1.35;;;;;;;;;;4954550;28;20039;-61
2023/10/10 16:51:31;;;;;;;6.47;1.50;;;;;;;;;;4956723;28;20039;-65
2023/10/10 16:53:57;;;;;;;;;;;;;;;;;;4962268;28;20046;-61
2023/10/10 16:56:24;;;;;;;4.28;1.40;;;;;;;;;;4957538;28;19918;-63
2023/10/10 16:58:51;;;;;;;6.70;1.60;;;;;;;;;;4969871;28;20046;-62
2023/10/10 17:01:20;;;;;;;6.28;1.83;;;;;;;;;;4956241;28;20053;-62
2023/10/10 17:03:54;;;;;;;10.57;1.80;;;;;;;;;;4957858;28;20034;-61
2023/10/10 17:06:26;;;;;;;8.48;1.52;;;;;;;;;;4956786;28;21485;-63
2023/10/10 17:08:59;;;;;;;5.77;1.43;;;;;;;;;;4962713;28;20093;-63
2023/10/10 17:11:26;;;;;;;4.95;1.27;;;;;;;;;;4953620;28;20288;-63
2023/10/10 17:13:59;;;;;;;6.18;1.20;;;;;;;;;;4965558;28;20124;-62
2023/10/10 17:16:33;;;;;;;;;;;;;;;;;;4957218;28;20122;-63
2023/10/10 17:19:00;;;;;;;5.47;1.20;;;;;;;;;;4954741;28;20389;-61
2023/10/10 17:21:30;;;;;;;9.85;1.73;;;;;;;;;;4970440;28;20846;-59
2023/10/10 17:23:56;;;;;;;5.95;1.30;;;;;;;;;;4955685;28;20143;-62
2023/10/10 17:26:26;;;;;;;3.78;1.20;;;;;;;;;;4965994;28;20083;-63
2023/10/10 17:29:12;;;;;;;4.32;1.30;;;;;;;;;;4932376;28;20483;-63
2023/10/10 17:31:40;;;;;;;6.72;1.13;;;;;;;;;;4940475;28;20403;-64
2023/10/10 17:34:07;;;;;;;4.85;1.33;;;;;;;;;;4941725;28;21509;-61
2023/10/10 17:36:35;;;;;;;7.55;1.48;;;;;;;;;;4940163;28;20043;-60
2023/10/10 17:39:02;;;;;;;5.28;1.58;;;;;;;;;;4941981;28;20063;-61
2023/10/10 17:41:34;;;;;;;6.50;1.08;;;;;;;;;;4939394;28;21407;-61
2023/10/10 17:44:08;;;;;;;5.75;1.50;;;;;;;;;;4940582;28;20086;-61
2023/10/10 17:46:35;;;;;;;6.43;1.20;;;;;;;;;;4939672;28;20704;-60
2023/10/10 17:49:02;;;;;;;5.93;1.10;;;;;;;;;;4940708;28;20158;-65
2023/10/10 17:51:32;;;;;;;4.60;1.10;;;;;;;;;;4940402;28;20058;-63
2023/10/10 17:53:58;;;;;;;7.32;1.23;;;;;;;;;;4940327;28;20059;-62
2023/10/10 17:56:26;;;;;;;3.10;1.00;;;;;;;;;;4939580;28;20512;-62